Walnut Park, California
Current Conditions -  °F | °C
As of 8:47 PM on Friday 19 Dec 2014 (Local Time) from KCQT Reporting Station
Clear Clear  
Wind Chill: 56°   Ceiling: Unl
Heat Index: 56°   Visibility: 10mi
Dew Point: 50°   Wind: 0mph
Humidity: 80%   Direction: NA
Pressure: 30.17"   Gusts: NA
Location:  33.977°N, 118.217°W
Report Text: KCQT 200447Z AUTO 00000KT 10SM CLR 13/10 A3017 RMK AO2 SLP216 T01330100
Loading
Personal Weather Stations






























Interactive Weather Map New forecast layout! Learn more

10-Day Weather Forecast

Advertisements
Track Severe Weather on mobile